createdAt,value
2022-09-20T00:00:06.590Z,31.40
2022-09-20T00:02:37.610Z,31.30
2022-09-20T00:05:11.621Z,31.40
2022-09-20T00:07:45.446Z,31.30
2022-09-20T00:10:21.445Z,31.40
2022-09-20T00:12:58.288Z,31.30
2022-09-20T00:15:32.361Z,31.30
2022-09-20T00:18:05.464Z,31.30
2022-09-20T00:20:35.648Z,31.20
2022-09-20T00:23:09.779Z,31.20
2022-09-20T00:25:40.842Z,31.20
2022-09-20T00:28:14.174Z,31.10
2022-09-20T00:30:43.585Z,31.00
2022-09-20T00:33:14.116Z,31.00
2022-09-20T00:35:51.094Z,31.00
2022-09-20T00:38:25.406Z,30.90
2022-09-20T00:40:55.744Z,30.90
2022-09-20T00:43:42.455Z,30.90
2022-09-20T00:46:37.624Z,30.90
2022-09-20T00:49:30.049Z,30.90
2022-09-20T00:52:03.858Z,30.80
2022-09-20T00:54:35.667Z,30.80
2022-09-20T00:57:06.918Z,30.70
2022-09-20T00:59:44.704Z,30.70
2022-09-20T01:02:29.249Z,30.70
2022-09-20T01:05:00.516Z,30.70
2022-09-20T01:07:32.701Z,30.60
2022-09-20T01:10:04.060Z,30.60
2022-09-20T01:12:36.864Z,30.60
2022-09-20T01:15:10.512Z,30.60
2022-09-20T01:17:46.540Z,30.50
2022-09-20T01:20:23.963Z,30.50
2022-09-20T01:23:25.095Z,30.40
2022-09-20T01:26:13.895Z,30.30
2022-09-20T01:28:46.557Z,30.40
2022-09-20T01:31:30.831Z,30.40
2022-09-20T01:34:14.814Z,30.30
2022-09-20T01:37:20.538Z,30.30
2022-09-20T01:40:01.086Z,30.30
2022-09-20T01:42:41.382Z,30.30
2022-09-20T01:45:30.526Z,30.20
2022-09-20T01:48:22.641Z,30.20
2022-09-20T01:51:32.120Z,30.10
2022-09-20T01:54:21.629Z,30.10
2022-09-20T01:57:03.412Z,30.10
2022-09-20T01:59:49.028Z,30.00
2022-09-20T02:02:54.398Z,30.00
2022-09-20T02:05:30.550Z,30.00
2022-09-20T02:08:44.567Z,30.00
2022-09-20T02:11:34.199Z,30.00
2022-09-20T02:14:24.674Z,30.00
2022-09-20T02:17:16.125Z,29.90
2022-09-20T02:19:55.235Z,29.80
2022-09-20T02:22:46.819Z,29.80
2022-09-20T02:25:44.190Z,29.80
2022-09-20T02:28:27.643Z,29.70
2022-09-20T02:31:19.234Z,29.70
2022-09-20T02:34:15.287Z,29.70
2022-09-20T02:37:08.570Z,29.70
2022-09-20T02:39:59.817Z,29.60
2022-09-20T02:42:45.803Z,29.60
2022-09-20T02:45:25.594Z,29.50
2022-09-20T02:48:02.907Z,29.50
2022-09-20T02:51:05.726Z,29.50
2022-09-20T02:54:16.469Z,29.40
2022-09-20T02:57:10.390Z,29.50
2022-09-20T03:00:12.865Z,29.50
2022-09-20T03:03:02.427Z,29.40
2022-09-20T03:05:57.054Z,29.30
2022-09-20T03:08:39.180Z,29.30
2022-09-20T03:11:13.819Z,29.20
2022-09-20T03:14:05.037Z,29.20
2022-09-20T03:17:13.062Z,29.10
2022-09-20T03:20:06.098Z,29.00
2022-09-20T03:22:49.083Z,28.90
2022-09-20T03:25:32.284Z,28.90
2022-09-20T03:28:06.360Z,28.80
2022-09-20T03:31:11.888Z,28.80
2022-09-20T03:34:06.210Z,28.70
2022-09-20T03:36:54.221Z,28.70
2022-09-20T03:39:43.607Z,28.60
2022-09-20T03:42:33.675Z,28.60
2022-09-20T03:45:09.748Z,28.60
2022-09-20T03:48:04.711Z,28.60
2022-09-20T03:50:37.423Z,28.50
2022-09-20T03:53:37.042Z,28.50
2022-09-20T03:56:20.221Z,28.50
2022-09-20T03:59:21.517Z,28.50
2022-09-20T04:02:30.150Z,28.40
2022-09-20T04:05:28.308Z,28.30
2022-09-20T04:08:29.273Z,28.40
2022-09-20T04:11:18.866Z,28.30
2022-09-20T04:14:14.163Z,28.30
2022-09-20T04:16:55.006Z,28.30
2022-09-20T04:20:05.346Z,28.20
2022-09-20T04:22:41.914Z,28.20
2022-09-20T04:25:43.054Z,28.20
2022-09-20T04:28:27.100Z,28.20
2022-09-20T04:31:05.211Z,28.10
2022-09-20T04:33:46.011Z,28.10
2022-09-20T04:36:50.849Z,28.00
2022-09-20T04:39:50.521Z,28.00
2022-09-20T04:43:06.271Z,28.00
2022-09-20T04:46:13.471Z,27.90
2022-09-20T04:49:25.021Z,27.90
2022-09-20T04:52:16.053Z,27.90
2022-09-20T04:55:01.606Z,27.90
2022-09-20T04:58:05.927Z,27.90
2022-09-20T05:00:49.690Z,27.80
2022-09-20T05:03:59.418Z,27.80
2022-09-20T05:06:47.631Z,27.80
2022-09-20T05:09:52.632Z,27.70
2022-09-20T05:13:12.230Z,27.70
2022-09-20T05:16:07.054Z,27.60
2022-09-20T05:18:42.534Z,27.60
2022-09-20T05:21:25.524Z,27.60
2022-09-20T05:24:12.749Z,27.60
2022-09-20T05:27:09.245Z,27.60
2022-09-20T05:29:47.797Z,27.60
2022-09-20T05:32:31.506Z,27.60
2022-09-20T05:35:34.325Z,27.50
2022-09-20T05:38:15.962Z,27.60
2022-09-20T05:41:01.284Z,27.50
2022-09-20T05:43:38.771Z,27.50
2022-09-20T05:46:46.687Z,27.40
2022-09-20T05:49:39.568Z,27.40
2022-09-20T05:52:46.753Z,27.30
2022-09-20T05:55:23.274Z,27.30
2022-09-20T05:57:58.154Z,27.30
2022-09-20T06:00:36.387Z,27.40
2022-09-20T06:03:31.918Z,27.30
2022-09-20T06:06:32.854Z,27.30
2022-09-20T06:09:22.064Z,27.30
2022-09-20T06:12:04.582Z,27.30
2022-09-20T06:14:55.358Z,27.30
2022-09-20T06:17:44.255Z,27.20
2022-09-20T06:21:00.494Z,27.20
2022-09-20T06:23:33.795Z,27.10
2022-09-20T06:26:37.553Z,27.10
2022-09-20T06:29:13.369Z,27.10
2022-09-20T06:31:44.216Z,27.00
2022-09-20T06:34:17.230Z,27.00
2022-09-20T06:37:14.042Z,27.00
2022-09-20T06:40:24.191Z,27.00
2022-09-20T06:43:01.286Z,27.00
2022-09-20T06:45:32.820Z,27.00
2022-09-20T06:48:06.831Z,26.80
2022-09-20T06:50:38.377Z,26.90
2022-09-20T06:53:18.828Z,26.80
2022-09-20T06:55:51.098Z,26.80
2022-09-20T06:58:21.930Z,26.80
2022-09-20T07:00:53.115Z,26.80
2022-09-20T07:03:25.324Z,26.80
2022-09-20T07:05:56.242Z,26.70
2022-09-20T07:08:29.753Z,26.80
2022-09-20T07:11:26.494Z,26.70
2022-09-20T07:14:00.984Z,26.60
2022-09-20T07:16:31.776Z,26.70
2022-09-20T07:19:01.995Z,26.70
2022-09-20T07:21:32.691Z,26.60
2022-09-20T07:24:04.205Z,26.60
2022-09-20T07:26:36.870Z,26.50
2022-09-20T07:29:09.978Z,26.50
2022-09-20T07:31:41.999Z,26.50
2022-09-20T07:34:13.445Z,26.50
2022-09-20T07:36:45.462Z,26.50
2022-09-20T07:39:20.066Z,26.50
2022-09-20T07:41:52.281Z,26.50
2022-09-20T07:44:25.760Z,26.40
2022-09-20T07:46:58.973Z,26.50
2022-09-20T07:49:32.971Z,26.40
2022-09-20T07:52:03.668Z,26.40
2022-09-20T07:54:37.114Z,26.40
2022-09-20T07:57:07.512Z,26.40
2022-09-20T07:59:39.440Z,26.40
2022-09-20T08:02:16.071Z,26.30
2022-09-20T08:04:47.064Z,26.20
2022-09-20T08:07:18.710Z,26.20
2022-09-20T08:09:49.174Z,26.30
2022-09-20T08:15:19.289Z,26.20
2022-09-20T08:17:52.650Z,26.20
2022-09-20T08:20:23.921Z,26.20
2022-09-20T08:23:19.491Z,26.10
2022-09-20T08:25:46.835Z,26.10
2022-09-20T08:28:18.012Z,26.20
2022-09-20T08:30:47.735Z,26.10
2022-09-20T08:33:22.377Z,26.10
2022-09-20T08:35:57.707Z,26.10
2022-09-20T08:41:41.032Z,25.90
2022-09-20T08:44:36.719Z,25.90
2022-09-20T08:47:49.668Z,25.90
2022-09-20T08:50:19.649Z,25.90
2022-09-20T08:53:00.251Z,25.90
2022-09-20T08:55:38.393Z,25.90
2022-09-20T08:58:15.574Z,25.80
2022-09-20T09:00:51.278Z,25.80
2022-09-20T09:03:26.143Z,25.80
2022-09-20T09:06:00.162Z,25.80
2022-09-20T09:08:39.672Z,25.80
2022-09-20T09:11:17.335Z,25.80
2022-09-20T09:13:55.791Z,25.80
2022-09-20T09:16:35.406Z,25.70
2022-09-20T09:19:34.557Z,25.80
2022-09-20T09:22:07.212Z,25.70
2022-09-20T09:24:42.661Z,25.70
2022-09-20T09:27:22.501Z,25.70
2022-09-20T09:29:57.127Z,25.70
2022-09-20T09:32:38.317Z,25.60
2022-09-20T09:35:31.796Z,25.50
2022-09-20T09:38:04.297Z,25.60
2022-09-20T09:40:39.164Z,25.50
2022-09-20T09:43:24.671Z,25.40
2022-09-20T09:45:56.890Z,25.50
2022-09-20T09:48:34.008Z,25.40
2022-09-20T09:51:16.646Z,25.40
2022-09-20T09:53:52.582Z,25.40
2022-09-20T09:56:49.018Z,25.30
2022-09-20T09:59:46.840Z,25.30
2022-09-20T10:02:53.848Z,25.30
2022-09-20T10:05:59.460Z,25.30
2022-09-20T10:09:04.909Z,25.40
2022-09-20T10:11:46.040Z,25.40
2022-09-20T10:14:21.448Z,25.30
2022-09-20T10:17:41.634Z,25.30
2022-09-20T10:20:17.260Z,25.30
2022-09-20T10:23:14.640Z,25.20
2022-09-20T10:26:26.802Z,25.10
2022-09-20T10:29:24.587Z,25.10
2022-09-20T10:32:18.236Z,25.20
2022-09-20T10:35:05.810Z,25.10
2022-09-20T10:38:02.237Z,25.20
2022-09-20T10:40:57.242Z,25.10
2022-09-20T10:43:50.117Z,25.10
2022-09-20T10:46:37.772Z,25.10
2022-09-20T10:49:35.138Z,25.10
2022-09-20T10:52:24.865Z,25.10
2022-09-20T10:55:23.233Z,25.10
2022-09-20T10:58:31.866Z,25.00
2022-09-20T11:01:02.907Z,25.00
2022-09-20T11:03:57.644Z,25.00
2022-09-20T11:07:15.708Z,25.00
2022-09-20T11:10:00.461Z,24.90
2022-09-20T11:12:40.949Z,24.90
2022-09-20T11:15:57.419Z,24.90
2022-09-20T11:18:41.300Z,24.80
2022-09-20T11:21:25.052Z,24.90
2022-09-20T11:24:04.555Z,24.90
2022-09-20T11:26:55.392Z,24.90
2022-09-20T11:29:47.762Z,24.90
2022-09-20T11:32:53.797Z,24.90
2022-09-20T11:35:27.551Z,24.80
2022-09-20T11:38:47.585Z,24.80
2022-09-20T11:41:35.977Z,24.80
2022-09-20T11:44:18.997Z,24.80
2022-09-20T11:47:01.209Z,24.60
2022-09-20T11:50:09.601Z,24.60
2022-09-20T11:52:42.703Z,24.70
2022-09-20T11:55:34.068Z,24.60
2022-09-20T11:58:30.983Z,24.60
2022-09-20T12:01:01.776Z,24.50
2022-09-20T12:03:41.428Z,24.60
2022-09-20T12:06:24.206Z,24.60
2022-09-20T12:08:55.069Z,24.50
2022-09-20T12:11:40.181Z,24.50
2022-09-20T12:14:23.501Z,24.50
2022-09-20T12:16:54.514Z,24.50
2022-09-20T12:19:34.475Z,24.50
2022-09-20T12:22:07.420Z,24.50
2022-09-20T12:24:45.101Z,24.50
2022-09-20T12:27:33.365Z,24.50
2022-09-20T12:30:23.483Z,24.50
2022-09-20T12:32:59.025Z,24.50
2022-09-20T12:35:46.758Z,24.50
2022-09-20T12:38:24.456Z,24.50
2022-09-20T12:41:12.799Z,24.50
2022-09-20T12:43:59.137Z,24.60
2022-09-20T12:46:44.041Z,24.60
2022-09-20T12:50:02.895Z,24.60
2022-09-20T12:52:51.927Z,24.70
2022-09-20T12:55:44.723Z,24.80
2022-09-20T12:58:15.838Z,24.80
2022-09-20T13:00:49.118Z,24.80
2022-09-20T13:03:28.061Z,24.90
2022-09-20T13:06:07.678Z,24.90
2022-09-20T13:09:03.691Z,25.00
2022-09-20T13:11:59.330Z,25.10
2022-09-20T13:14:43.581Z,25.10
2022-09-20T13:17:35.213Z,25.20
2022-09-20T13:20:06.594Z,25.30
2022-09-20T13:22:44.855Z,25.40
2022-09-20T13:25:18.021Z,25.40
2022-09-20T13:28:29.903Z,25.40
2022-09-20T13:31:24.352Z,25.50
2022-09-20T13:33:57.923Z,25.60
2022-09-20T13:36:32.779Z,25.60
2022-09-20T13:39:04.091Z,25.60
2022-09-20T13:41:37.289Z,25.70
2022-09-20T13:44:08.908Z,25.70
2022-09-20T13:46:47.378Z,25.80
2022-09-20T13:49:40.102Z,25.90
2022-09-20T13:52:27.524Z,25.90
2022-09-20T13:55:04.510Z,25.90
2022-09-20T13:57:35.999Z,26.00
2022-09-20T14:00:15.125Z,26.10
2022-09-20T14:02:48.632Z,26.20
2022-09-20T14:05:24.990Z,26.20
2022-09-20T14:07:56.281Z,26.30
2022-09-20T14:11:04.541Z,26.30
2022-09-20T14:13:42.400Z,26.40
2022-09-20T14:16:14.030Z,26.50
2022-09-20T14:18:49.583Z,26.50
2022-09-20T14:21:33.414Z,26.50
2022-09-20T14:24:29.471Z,26.50
2022-09-20T14:27:24.223Z,26.60
2022-09-20T14:29:58.090Z,26.70
2022-09-20T14:32:42.533Z,26.70
2022-09-20T14:35:23.393Z,26.80
2022-09-20T14:37:58.973Z,26.80
2022-09-20T14:40:33.431Z,26.90
2022-09-20T14:43:07.739Z,26.90
2022-09-20T14:45:44.517Z,27.00
2022-09-20T14:48:18.704Z,27.00
2022-09-20T14:51:09.819Z,27.00
2022-09-20T14:53:43.186Z,27.00
2022-09-20T14:56:16.226Z,27.00
2022-09-20T14:59:27.477Z,26.90
2022-09-20T15:02:16.538Z,27.10
2022-09-20T15:05:00.475Z,27.10
2022-09-20T15:07:31.340Z,27.20
2022-09-20T15:10:06.211Z,27.10
2022-09-20T15:12:35.772Z,27.20
2022-09-20T15:15:10.018Z,27.40
2022-09-20T15:17:39.847Z,27.50
2022-09-20T15:20:18.632Z,27.60
2022-09-20T15:22:51.852Z,27.70
2022-09-20T15:25:23.401Z,27.80
2022-09-20T15:27:56.283Z,27.90
2022-09-20T15:30:29.909Z,28.00
2022-09-20T15:33:03.154Z,28.10
2022-09-20T15:35:32.968Z,28.10
2022-09-20T15:38:06.747Z,28.10
2022-09-20T15:40:37.909Z,28.20
2022-09-20T15:43:12.004Z,28.10
2022-09-20T15:45:57.433Z,28.20
2022-09-20T15:48:31.365Z,28.30
2022-09-20T15:51:09.938Z,28.30
2022-09-20T15:53:47.658Z,28.40
2022-09-20T15:56:22.948Z,28.40
2022-09-20T15:59:02.253Z,28.30
2022-09-20T16:01:37.625Z,28.40
2022-09-20T16:04:19.931Z,28.50
2022-09-20T16:06:51.913Z,28.60
2022-09-20T16:09:26.678Z,28.50
2022-09-20T16:11:59.789Z,28.70
2022-09-20T16:14:30.393Z,28.70
2022-09-20T16:17:02.115Z,28.80
2022-09-20T16:19:32.789Z,28.80
2022-09-20T16:22:05.111Z,28.60
2022-09-20T16:24:37.956Z,28.70
2022-09-20T16:27:11.996Z,29.00
2022-09-20T16:29:42.086Z,28.90
2022-09-20T16:32:15.337Z,29.00
2022-09-20T16:34:52.281Z,29.00
2022-09-20T16:37:25.721Z,29.30
2022-09-20T16:39:59.487Z,29.30
2022-09-20T16:42:37.708Z,29.30
2022-09-20T16:45:09.709Z,29.40
2022-09-20T16:47:42.019Z,29.40
2022-09-20T16:50:13.228Z,29.40
2022-09-20T16:52:44.313Z,29.30
2022-09-20T16:55:14.870Z,29.20
2022-09-20T16:57:47.931Z,29.20
2022-09-20T17:00:22.244Z,29.40
2022-09-20T17:02:54.166Z,29.40
2022-09-20T17:05:24.955Z,29.50
2022-09-20T17:07:58.045Z,29.70
2022-09-20T17:10:29.809Z,29.80
2022-09-20T17:13:03.711Z,30.00
2022-09-20T17:15:33.717Z,29.90
2022-09-20T17:18:06.775Z,29.60
2022-09-20T17:20:40.322Z,29.80
2022-09-20T17:23:11.406Z,30.10
2022-09-20T17:25:44.873Z,30.10
2022-09-20T17:28:15.430Z,30.20
2022-09-20T17:30:46.514Z,30.10
2022-09-20T17:33:19.828Z,30.10
2022-09-20T17:35:54.806Z,30.00
2022-09-20T17:38:27.638Z,30.00
2022-09-20T17:41:14.815Z,30.20
2022-09-20T17:43:47.433Z,30.10
2022-09-20T17:46:29.666Z,30.30
2022-09-20T17:49:02.972Z,30.40
2022-09-20T17:51:36.025Z,30.40
2022-09-20T17:54:08.623Z,30.40
2022-09-20T17:56:39.495Z,30.40
2022-09-20T17:59:10.640Z,30.40
2022-09-20T18:01:45.844Z,30.50
2022-09-20T18:04:17.294Z,30.30
2022-09-20T18:06:49.918Z,30.40
2022-09-20T18:09:26.225Z,30.60
2022-09-20T18:11:57.370Z,30.50
2022-09-20T18:14:31.400Z,30.80
2022-09-20T18:17:04.355Z,30.60
2022-09-20T18:19:34.835Z,30.60
2022-09-20T18:22:07.552Z,30.60
2022-09-20T18:24:37.788Z,30.80
2022-09-20T18:27:07.702Z,30.80
2022-09-20T18:29:38.801Z,30.90
2022-09-20T18:32:09.604Z,30.80
2022-09-20T18:34:40.810Z,31.00
2022-09-20T18:37:14.604Z,31.00
2022-09-20T18:39:47.419Z,31.30
2022-09-20T18:42:17.863Z,31.20
2022-09-20T18:44:47.990Z,31.00
2022-09-20T18:47:22.604Z,31.10
2022-09-20T18:49:53.420Z,31.10
2022-09-20T18:52:25.449Z,31.20
2022-09-20T18:54:57.281Z,31.30
2022-09-20T18:57:29.180Z,31.30
2022-09-20T19:00:04.036Z,31.30
2022-09-20T19:03:10.255Z,31.70
2022-09-20T19:05:48.426Z,31.40
2022-09-20T19:08:35.233Z,31.20
2022-09-20T19:11:15.307Z,31.20
2022-09-20T19:13:57.226Z,31.30
2022-09-20T19:16:35.175Z,31.40
2022-09-20T19:19:23.992Z,31.50
2022-09-20T19:22:23.487Z,31.70
2022-09-20T19:25:09.070Z,31.90
2022-09-20T19:27:40.064Z,31.80
2022-09-20T19:30:14.888Z,31.70
2022-09-20T19:32:46.258Z,31.70
2022-09-20T19:35:33.079Z,31.70
2022-09-20T19:38:26.004Z,31.70
2022-09-20T19:41:10.420Z,31.50
2022-09-20T19:43:51.731Z,31.50
2022-09-20T19:46:39.074Z,31.50
2022-09-20T19:49:17.300Z,31.50
2022-09-20T19:51:49.878Z,31.40
2022-09-20T19:54:22.880Z,31.40
2022-09-20T19:56:57.059Z,31.50
2022-09-20T19:59:30.975Z,31.70
2022-09-20T20:02:01.179Z,31.70
2022-09-20T20:04:31.801Z,31.80
2022-09-20T20:07:29.091Z,31.90
2022-09-20T20:10:06.833Z,31.90
2022-09-20T20:13:52.363Z,32.10
2022-09-20T20:16:46.043Z,32.20
2022-09-20T20:19:36.767Z,32.30
2022-09-20T20:22:49.318Z,32.20
2022-09-20T20:25:31.163Z,31.80
2022-09-20T20:28:07.468Z,31.70
2022-09-20T20:30:38.185Z,32.10
2022-09-20T20:33:19.766Z,32.30
2022-09-20T20:36:13.440Z,32.20
2022-09-20T20:38:47.464Z,32.30
2022-09-20T20:41:22.245Z,32.20
2022-09-20T20:43:58.542Z,31.90
2022-09-20T20:46:38.236Z,31.90
2022-09-20T20:49:08.181Z,31.90
2022-09-20T20:51:41.010Z,31.70
2022-09-20T20:54:12.883Z,31.70
2022-09-20T20:56:44.085Z,31.90
2022-09-20T20:59:17.097Z,32.00
2022-09-20T21:01:49.360Z,32.10
2022-09-20T21:04:20.342Z,32.00
2022-09-20T21:06:51.428Z,31.90
2022-09-20T21:09:21.613Z,31.80
2022-09-20T21:11:56.722Z,31.90
2022-09-20T21:14:26.787Z,32.00
2022-09-20T21:16:57.022Z,32.10
2022-09-20T21:19:28.378Z,32.20
2022-09-20T21:22:01.359Z,32.50
2022-09-20T21:24:33.683Z,32.60
2022-09-20T21:27:05.637Z,32.40
2022-09-20T21:29:37.279Z,32.10
2022-09-20T21:32:06.805Z,32.00
2022-09-20T21:34:37.184Z,31.90
2022-09-20T21:37:07.313Z,31.90
2022-09-20T21:39:38.407Z,31.80
2022-09-20T21:42:08.876Z,31.80
2022-09-20T21:44:39.004Z,31.70
2022-09-20T21:47:10.868Z,31.70
2022-09-20T21:49:44.622Z,31.70
2022-09-20T21:52:15.557Z,31.50
2022-09-20T21:54:47.200Z,31.30
2022-09-20T21:57:19.692Z,31.50
2022-09-20T21:59:51.428Z,31.70
2022-09-20T22:02:20.962Z,31.90
2022-09-20T22:04:53.152Z,32.20
2022-09-20T22:07:25.148Z,32.20
2022-09-20T22:09:57.449Z,32.20
2022-09-20T22:12:28.453Z,32.20
2022-09-20T22:14:59.652Z,32.20
2022-09-20T22:17:30.364Z,32.30
2022-09-20T22:20:02.703Z,32.30
2022-09-20T22:22:33.948Z,32.40
2022-09-20T22:25:04.583Z,32.40
2022-09-20T22:27:35.805Z,32.50
2022-09-20T22:30:08.674Z,32.50
2022-09-20T22:32:40.531Z,32.50
2022-09-20T22:35:11.785Z,32.40
2022-09-20T22:37:42.517Z,32.40
2022-09-20T22:40:13.200Z,32.40
2022-09-20T22:42:44.208Z,32.40
2022-09-20T22:45:14.290Z,32.40
2022-09-20T22:47:47.280Z,32.40
2022-09-20T22:50:18.030Z,32.30
2022-09-20T22:52:48.521Z,32.30
2022-09-20T22:55:22.042Z,32.30
2022-09-20T22:58:00.002Z,32.30
2022-09-20T23:00:29.516Z,32.20
2022-09-20T23:03:02.820Z,32.20
2022-09-20T23:05:32.698Z,32.20
2022-09-20T23:08:07.295Z,32.20
2022-09-20T23:10:39.763Z,32.20
2022-09-20T23:13:14.782Z,32.10
2022-09-20T23:15:47.803Z,32.10
2022-09-20T23:18:19.530Z,32.10
2022-09-20T23:21:03.427Z,32.10
2022-09-20T23:23:34.900Z,32.00
2022-09-20T23:26:13.881Z,32.00
2022-09-20T23:28:49.027Z,31.90
2022-09-20T23:31:22.886Z,31.90
2022-09-20T23:34:03.250Z,31.90
2022-09-20T23:36:38.763Z,31.90
2022-09-20T23:39:15.905Z,31.90
2022-09-20T23:41:51.606Z,31.90
2022-09-20T23:44:23.201Z,31.80
2022-09-20T23:46:55.383Z,31.70
2022-09-20T23:49:27.382Z,31.70
2022-09-20T23:51:58.648Z,31.70
2022-09-20T23:54:31.065Z,31.70
2022-09-20T23:57:02.725Z,31.70
2022-09-20T23:59:34.627Z,31.60
